5BL weather

Homer-Beluga Lake Seaplane Base
Homer, Alaska, United States

Public forecast

Using degrees Fahrenheit for public forecast. Weather courtesy of forecast.io.

METAR (pilot weather report)

Closest report is Homer Airport, 0.8 nm (1.4 km) E. Retrieved 2019/05/22 03:53 UTC (15 minutes ago):

PAHO 220353Z 25008KT 10SM CLR 11/05 A3012 RMK AO2 SLP200 T01060050

TAF (pilot weather forecast)

Forecast is more than 12 hours old.

Closest forecast is Homer Airport, 0.8 nm (1.4 km) E. Retrieved 2019/05/21 00:36 UTC (1 day ago):

TAF PAHO 212335Z 2200/2224 24010KT P6SM SKC FM220600 VRB04KT P6SM SCT060 BKN120 FM221800 10008KT P6SM BKN060 OVC120